createdAt,value
2022-10-14T00:00:18.525Z,99549.41
2022-10-14T00:03:05.686Z,99553.75
2022-10-14T00:05:52.998Z,99546.84
2022-10-14T00:08:40.729Z,99541.00
2022-10-14T00:11:38.090Z,99532.47
2022-10-14T00:14:25.615Z,99537.59
2022-10-14T00:17:13.177Z,99543.69
2022-10-14T00:20:00.689Z,99532.59
2022-10-14T00:22:47.721Z,99536.94
2022-10-14T00:25:40.089Z,99536.09
2022-10-14T00:28:28.643Z,99539.38
2022-10-14T00:31:17.300Z,99544.63
2022-10-14T00:34:07.899Z,99551.50
2022-10-14T00:36:55.225Z,99543.81
2022-10-14T00:39:42.533Z,99549.91
2022-10-14T00:42:29.743Z,99543.94
2022-10-14T00:45:24.867Z,99538.09
2022-10-14T00:48:16.428Z,99541.72
2022-10-14T00:51:06.137Z,99538.44
2022-10-14T00:53:53.212Z,99541.97
2022-10-14T00:56:40.968Z,99537.75
2022-10-14T00:59:30.706Z,99542.06
2022-10-14T01:02:19.222Z,99540.31
2022-10-14T01:05:08.516Z,99539.50
2022-10-14T01:08:04.887Z,99537.88
2022-10-14T01:11:00.391Z,99532.88
2022-10-14T01:13:56.027Z,99531.22
2022-10-14T01:16:53.246Z,99532.16
2022-10-14T01:20:14.988Z,99525.38
2022-10-14T01:23:26.649Z,99528.78
2022-10-14T01:26:44.652Z,99523.72
2022-10-14T01:30:01.475Z,99525.38
2022-10-14T01:33:06.027Z,99524.44
2022-10-14T01:36:04.477Z,99523.50
2022-10-14T01:38:58.029Z,99519.19
2022-10-14T01:41:50.930Z,99517.31
2022-10-14T01:44:43.786Z,99513.91
2022-10-14T01:47:35.484Z,99514.63
2022-10-14T01:50:25.723Z,99506.91
2022-10-14T01:53:20.215Z,99509.38
2022-10-14T01:56:08.689Z,99500.84
2022-10-14T01:58:57.716Z,99511.81
2022-10-14T02:01:45.211Z,99501.53
2022-10-14T02:04:37.519Z,99511.81
2022-10-14T02:07:34.401Z,99504.91
2022-10-14T02:10:37.696Z,99499.69
2022-10-14T02:13:40.729Z,99501.53
2022-10-14T02:16:37.423Z,99499.75
2022-10-14T02:19:36.789Z,99496.25
2022-10-14T02:22:31.015Z,99491.13
2022-10-14T02:25:26.907Z,99480.97
2022-10-14T02:28:20.295Z,99478.41
2022-10-14T02:31:14.357Z,99477.59
2022-10-14T02:34:08.615Z,99472.47
2022-10-14T02:37:00.349Z,99474.78
2022-10-14T02:39:57.918Z,99463.78
2022-10-14T02:42:45.235Z,99461.34
2022-10-14T02:45:32.620Z,99457.03
2022-10-14T02:48:20.349Z,99457.84
2022-10-14T02:51:07.543Z,99448.50
2022-10-14T02:54:01.573Z,99451.91
2022-10-14T02:56:49.145Z,99447.56
2022-10-14T02:59:36.301Z,99453.63
2022-10-14T03:02:25.021Z,99442.41
2022-10-14T03:05:12.816Z,99448.28
2022-10-14T03:08:00.539Z,99440.56
2022-10-14T03:10:51.595Z,99432.13
2022-10-14T03:13:38.693Z,99428.66
2022-10-14T03:16:25.997Z,99435.50
2022-10-14T03:19:13.783Z,99424.19
2022-10-14T03:22:07.187Z,99416.72
2022-10-14T03:24:55.401Z,99416.72
2022-10-14T03:27:57.068Z,99411.59
2022-10-14T03:30:56.541Z,99403.06
2022-10-14T03:33:59.236Z,99407.38
2022-10-14T03:36:48.421Z,99408.34
2022-10-14T03:39:36.565Z,99404.81
2022-10-14T03:42:25.935Z,99418.38
2022-10-14T03:45:14.464Z,99403.88
2022-10-14T03:48:01.696Z,99401.31
2022-10-14T03:50:48.862Z,99395.34
2022-10-14T03:53:38.720Z,99403.88
2022-10-14T03:56:27.288Z,99386.69
2022-10-14T03:59:15.167Z,99393.59
2022-10-14T04:02:09.196Z,99394.31
2022-10-14T04:05:01.049Z,99391.03
2022-10-14T04:07:51.067Z,99384.25
2022-10-14T04:10:38.800Z,99391.03
2022-10-14T04:13:27.906Z,99391.81
2022-10-14T04:16:14.890Z,99391.81
2022-10-14T04:19:32.830Z,99389.38
2022-10-14T04:22:23.199Z,99390.22
2022-10-14T04:25:15.215Z,99390.22
2022-10-14T04:28:02.966Z,99387.66
2022-10-14T04:31:02.912Z,99381.66
2022-10-14T04:33:59.409Z,99379.09
2022-10-14T04:36:54.174Z,99377.38
2022-10-14T04:40:04.639Z,99376.53
2022-10-14T04:42:57.379Z,99380.75
2022-10-14T04:45:50.575Z,99379.81
2022-10-14T04:48:44.297Z,99373.75
2022-10-14T04:51:32.397Z,99368.59
2022-10-14T04:54:41.421Z,99377.25
2022-10-14T04:57:28.499Z,99367.63
2022-10-14T05:00:17.084Z,99366.72
2022-10-14T05:03:14.419Z,99358.19
2022-10-14T05:06:03.278Z,99347.78
2022-10-14T05:08:50.849Z,99351.16
2022-10-14T05:11:39.385Z,99337.50
2022-10-14T05:14:26.570Z,99338.31
2022-10-14T05:17:26.580Z,99343.44
2022-10-14T05:20:14.525Z,99340.88
2022-10-14T05:23:04.197Z,99346.84
2022-10-14T05:25:52.946Z,99339.16
2022-10-14T05:28:42.275Z,99336.56
2022-10-14T05:31:30.127Z,99338.19
2022-10-14T05:34:37.288Z,99326.28
2022-10-14T05:37:27.531Z,99336.56
2022-10-14T05:40:16.328Z,99330.47
2022-10-14T05:43:04.508Z,99328.03
2022-10-14T05:45:54.974Z,99335.59
2022-10-14T05:48:44.725Z,99334.00
2022-10-14T05:51:32.578Z,99327.22
2022-10-14T05:54:28.410Z,99322.88
2022-10-14T05:57:17.470Z,99325.47
2022-10-14T06:00:07.488Z,99328.03
2022-10-14T06:03:05.885Z,99334.00
2022-10-14T06:05:38.441Z,99326.28
2022-10-14T06:08:07.701Z,99321.03
2022-10-14T06:10:38.837Z,99323.59
2022-10-14T06:13:07.617Z,99320.91
2022-10-14T06:15:39.302Z,99326.03
2022-10-14T06:18:09.494Z,99325.09
2022-10-14T06:20:38.591Z,99325.09
2022-10-14T06:23:07.295Z,99327.53
2022-10-14T06:25:37.813Z,99330.00
2022-10-14T06:28:07.368Z,99319.84
2022-10-14T06:30:36.083Z,99321.47
2022-10-14T06:33:04.926Z,99327.41
2022-10-14T06:35:35.057Z,99324.84
2022-10-14T06:38:03.731Z,99324.84
2022-10-14T06:40:32.599Z,99319.72
2022-10-14T06:43:03.762Z,99314.56
2022-10-14T06:45:33.497Z,99320.50
2022-10-14T06:48:02.307Z,99324.84
2022-10-14T06:50:30.962Z,99331.63
2022-10-14T06:53:01.092Z,99334.19
2022-10-14T06:55:29.923Z,99333.38
2022-10-14T06:57:58.851Z,99332.44
2022-10-14T07:00:27.991Z,99327.28
2022-10-14T07:02:57.146Z,99333.13
2022-10-14T07:05:28.133Z,99334.88
2022-10-14T07:10:30.257Z,99328.81
2022-10-14T07:12:59.021Z,99323.66
2022-10-14T07:15:30.281Z,99333.00
2022-10-14T07:18:02.371Z,99345.88
2022-10-14T07:20:31.006Z,99338.16
2022-10-14T07:23:01.110Z,99333.81
2022-10-14T07:25:29.883Z,99329.47
2022-10-14T07:27:58.509Z,99334.63
2022-10-14T07:30:27.384Z,99324.34
2022-10-14T07:32:56.505Z,99327.59
2022-10-14T07:35:25.688Z,99322.47
2022-10-14T07:37:55.297Z,99327.59
2022-10-14T07:40:25.305Z,99314.63
2022-10-14T07:42:53.987Z,99324.91
2022-10-14T07:45:22.691Z,99320.56
2022-10-14T07:47:52.925Z,99319.63
2022-10-14T07:50:21.640Z,99317.06
2022-10-14T07:52:50.588Z,99316.00
2022-10-14T07:55:19.326Z,99320.34
2022-10-14T07:57:49.354Z,99314.28
2022-10-14T08:00:18.559Z,99321.97
2022-10-14T08:02:47.241Z,99320.22
2022-10-14T08:08:04.607Z,99321.97
2022-10-14T08:10:33.930Z,99328.72
2022-10-14T08:13:04.349Z,99314.94
2022-10-14T08:15:38.636Z,99307.22
2022-10-14T08:18:08.269Z,99309.81
2022-10-14T08:20:37.203Z,99312.38
2022-10-14T08:23:06.078Z,99311.44
2022-10-14T08:25:41.995Z,99318.22
2022-10-14T08:28:12.168Z,99318.22
2022-10-14T08:30:41.007Z,99317.25
2022-10-14T08:33:09.652Z,99308.75
2022-10-14T08:35:38.234Z,99309.53
2022-10-14T08:38:07.249Z,99307.81
2022-10-14T08:40:56.856Z,99314.69
2022-10-14T08:43:32.758Z,99311.19
2022-10-14T08:46:10.622Z,99313.75
2022-10-14T08:48:40.167Z,99312.94
2022-10-14T08:51:14.898Z,99318.00
2022-10-14T08:53:48.535Z,99318.00
2022-10-14T08:56:19.489Z,99312.84
2022-10-14T08:58:52.125Z,99309.41
2022-10-14T09:01:27.857Z,99317.84
2022-10-14T09:04:00.222Z,99312.84
2022-10-14T09:06:31.989Z,99312.84
2022-10-14T09:09:09.186Z,99311.91
2022-10-14T09:11:42.920Z,99300.78
2022-10-14T09:14:20.055Z,99300.66
2022-10-14T09:16:58.410Z,99299.84
2022-10-14T09:19:33.454Z,99300.66
2022-10-14T09:22:03.021Z,99296.34
2022-10-14T09:24:36.506Z,99285.94
2022-10-14T09:27:08.307Z,99287.56
2022-10-14T09:29:44.731Z,99289.19
2022-10-14T09:32:25.045Z,99289.19
2022-10-14T09:34:54.892Z,99281.47
2022-10-14T09:37:29.233Z,99276.31
2022-10-14T09:40:04.590Z,99281.47
2022-10-14T09:42:48.533Z,99278.75
2022-10-14T09:45:22.681Z,99272.81
2022-10-14T09:47:56.367Z,99264.16
2022-10-14T09:50:42.632Z,99265.81
2022-10-14T09:53:19.989Z,99264.84
2022-10-14T09:55:51.204Z,99253.63
2022-10-14T09:58:37.380Z,99250.13
2022-10-14T10:01:12.940Z,99241.47
2022-10-14T10:03:42.227Z,99243.06
2022-10-14T10:06:14.419Z,99247.28
2022-10-14T10:08:58.234Z,99242.84
2022-10-14T10:11:33.456Z,99229.97
2022-10-14T10:14:18.745Z,99230.78
2022-10-14T10:19:29.283Z,99223.63
2022-10-14T10:24:49.249Z,99223.63
2022-10-14T10:27:25.823Z,99219.28
2022-10-14T10:29:55.563Z,99220.91
2022-10-14T10:32:32.304Z,99218.22
2022-10-14T10:35:24.136Z,99216.59
2022-10-14T10:38:06.744Z,99210.63
2022-10-14T10:40:41.477Z,99213.06
2022-10-14T10:43:57.375Z,99214.84
2022-10-14T10:46:55.085Z,99205.34
2022-10-14T10:49:48.343Z,99206.28
2022-10-14T10:52:30.745Z,99204.41
2022-10-14T10:55:10.432Z,99202.78
2022-10-14T10:57:54.041Z,99202.78
2022-10-14T11:03:11.745Z,99206.06
2022-10-14T11:06:02.964Z,99195.75
2022-10-14T11:09:12.248Z,99195.75
2022-10-14T11:12:12.810Z,99187.34
2022-10-14T11:15:31.526Z,99190.84
2022-10-14T11:18:05.806Z,99185.72
2022-10-14T11:20:47.930Z,99180.34
2022-10-14T11:23:59.442Z,99189.78
2022-10-14T11:27:08.750Z,99190.84
2022-10-14T11:30:09.298Z,99177.06
2022-10-14T11:32:54.837Z,99183.84
2022-10-14T11:39:05.590Z,99161.91
2022-10-14T11:41:55.536Z,99162.72
2022-10-14T11:44:32.002Z,99161.75
2022-10-14T11:47:05.846Z,99156.47
2022-10-14T11:49:43.519Z,99158.13
2022-10-14T11:52:18.991Z,99145.41
2022-10-14T11:54:54.512Z,99140.91
2022-10-14T11:57:31.841Z,99145.25
2022-10-14T12:00:23.485Z,99142.81
2022-10-14T12:03:03.870Z,99143.75
2022-10-14T12:05:40.465Z,99142.00
2022-10-14T12:08:22.277Z,99134.28
2022-10-14T12:10:59.698Z,99125.63
2022-10-14T12:13:34.651Z,99133.34
2022-10-14T12:16:05.518Z,99127.41
2022-10-14T12:21:19.124Z,99125.75
2022-10-14T12:23:55.041Z,99129.13
2022-10-14T12:26:49.174Z,99128.31
2022-10-14T12:29:21.410Z,99118.97
2022-10-14T12:31:54.746Z,99124.91
2022-10-14T12:34:38.726Z,99119.78
2022-10-14T12:37:50.359Z,99108.69
2022-10-14T12:40:31.669Z,99102.59
2022-10-14T12:43:19.435Z,99100.84
2022-10-14T12:46:05.192Z,99102.59
2022-10-14T12:48:36.248Z,99109.38
2022-10-14T12:51:13.369Z,99102.34
2022-10-14T12:53:52.747Z,99098.03
2022-10-14T12:56:39.413Z,99098.97
2022-10-14T12:59:18.172Z,99088.53
2022-10-14T13:01:47.061Z,99090.97
2022-10-14T13:04:20.259Z,99090.84
2022-10-14T13:07:41.489Z,99105.59
2022-10-14T13:10:48.530Z,99100.47
2022-10-14T13:13:50.250Z,99097.06
2022-10-14T13:17:00.924Z,99101.41
2022-10-14T13:19:44.712Z,99088.53
2022-10-14T13:22:41.829Z,99079.06
2022-10-14T13:25:18.680Z,99072.97
2022-10-14T13:28:24.819Z,99077.31
2022-10-14T13:31:04.969Z,99073.09
2022-10-14T13:33:42.365Z,99069.47
2022-10-14T13:36:18.371Z,99066.75
2022-10-14T13:38:55.256Z,99058.91
2022-10-14T13:41:30.689Z,99065.81
2022-10-14T13:44:01.055Z,99062.28
2022-10-14T13:46:33.952Z,99071.75
2022-10-14T13:51:49.526Z,99057.00
2022-10-14T13:54:21.886Z,99049.28
2022-10-14T14:00:38.097Z,99044.16
2022-10-14T14:02:49.010Z,99034.81
2022-10-14T14:05:31.418Z,99030.47
2022-10-14T14:11:15.712Z,99026.16
2022-10-14T14:13:55.872Z,99023.56
2022-10-14T14:16:31.265Z,99014.09
2022-10-14T14:19:09.208Z,99016.50
2022-10-14T14:21:40.205Z,99018.28
2022-10-14T14:24:20.517Z,99021.53
2022-10-14T14:26:57.036Z,99024.94
2022-10-14T14:29:30.279Z,99021.38
2022-10-14T14:32:06.517Z,99023.97
2022-10-14T14:34:38.625Z,99016.25
2022-10-14T14:37:48.070Z,99013.66
2022-10-14T14:40:17.407Z,99006.78
2022-10-14T14:42:50.147Z,99010.16
2022-10-14T14:45:25.471Z,99002.44
2022-10-14T14:47:57.590Z,99008.41
2022-10-14T14:50:31.800Z,99001.50
2022-10-14T14:53:05.500Z,99003.13
2022-10-14T14:56:01.833Z,98993.78
2022-10-14T14:58:35.073Z,98996.34
2022-10-14T15:01:04.356Z,98984.28
2022-10-14T15:03:37.085Z,98983.34
2022-10-14T15:06:26.895Z,98986.72
2022-10-14T15:09:01.992Z,98985.91
2022-10-14T15:11:30.704Z,98988.34
2022-10-14T15:14:00.193Z,98978.88
2022-10-14T15:16:42.162Z,98980.50
2022-10-14T15:19:27.874Z,98975.50
2022-10-14T15:22:36.793Z,98973.06
2022-10-14T15:25:11.158Z,98967.78
2022-10-14T15:27:48.149Z,98969.41
2022-10-14T15:30:28.144Z,98968.59
2022-10-14T15:32:59.872Z,98965.06
2022-10-14T15:35:29.775Z,98963.31
2022-10-14T15:37:58.593Z,98971.03
2022-10-14T15:40:32.709Z,98970.06
2022-10-14T15:43:01.344Z,98973.59
2022-10-14T15:45:29.939Z,98979.41
2022-10-14T15:48:01.940Z,98980.34
2022-10-14T15:50:30.784Z,98972.53
2022-10-14T15:52:59.466Z,98969.94
2022-10-14T15:55:34.254Z,98968.97
2022-10-14T15:58:03.115Z,98965.59
2022-10-14T16:00:32.041Z,98960.47
2022-10-14T16:03:03.791Z,98957.88
2022-10-14T16:05:32.413Z,98961.25
2022-10-14T16:08:01.017Z,98951.09
2022-10-14T16:10:33.633Z,98951.78
2022-10-14T16:13:03.516Z,98947.59
2022-10-14T16:15:46.311Z,98941.50
2022-10-14T16:18:14.933Z,98942.44
2022-10-14T16:20:43.543Z,98937.31
2022-10-14T16:23:16.280Z,98939.88
2022-10-14T16:25:49.194Z,98945.03
2022-10-14T16:28:21.637Z,98947.59
2022-10-14T16:30:50.888Z,98935.53
2022-10-14T16:33:22.561Z,98944.06
2022-10-14T16:35:54.229Z,98933.94
2022-10-14T16:38:24.869Z,98925.25
2022-10-14T16:40:59.721Z,98929.59
2022-10-14T16:43:29.665Z,98928.78
2022-10-14T16:46:00.497Z,98933.09
2022-10-14T16:48:29.360Z,98927.94
2022-10-14T16:50:58.079Z,98938.25
2022-10-14T16:53:45.129Z,98940.81
2022-10-14T16:56:35.444Z,98930.66
2022-10-14T16:59:04.716Z,98925.53
2022-10-14T17:01:33.856Z,98930.66
2022-10-14T17:04:04.015Z,98932.31
2022-10-14T17:06:33.310Z,98939.19
2022-10-14T17:09:02.086Z,98939.06
2022-10-14T17:11:32.134Z,98938.25
2022-10-14T17:14:02.049Z,98943.38
2022-10-14T17:16:34.425Z,98938.25
2022-10-14T17:19:03.264Z,98934.03
2022-10-14T17:21:31.918Z,98947.72
2022-10-14T17:24:02.667Z,98942.59
2022-10-14T17:26:34.445Z,98945.16
2022-10-14T17:29:03.978Z,98952.06
2022-10-14T17:31:34.284Z,98945.31
2022-10-14T17:34:03.509Z,98940.16
2022-10-14T17:36:34.516Z,98929.03
2022-10-14T17:39:03.431Z,98935.00
2022-10-14T17:41:33.733Z,98940.16
2022-10-14T17:44:02.585Z,98934.19
2022-10-14T17:46:32.247Z,98933.38
2022-10-14T17:49:03.895Z,98925.66
2022-10-14T17:51:33.302Z,98920.53
2022-10-14T17:54:04.771Z,98925.66
2022-10-14T17:56:37.214Z,98920.53
2022-10-14T17:59:08.722Z,98923.22
2022-10-14T18:02:00.921Z,98930.94
2022-10-14T18:04:26.406Z,98928.53
2022-10-14T18:06:55.191Z,98930.25
2022-10-14T18:09:23.897Z,98928.53
2022-10-14T18:12:08.111Z,98927.69
2022-10-14T18:14:37.647Z,98933.66
2022-10-14T18:17:06.439Z,98932.03
2022-10-14T18:19:35.292Z,98927.69
2022-10-14T18:22:04.215Z,98923.38
2022-10-14T18:24:32.875Z,98923.38
2022-10-14T18:27:03.305Z,98919.03
2022-10-14T18:29:32.090Z,98914.81
2022-10-14T18:32:00.714Z,98909.53
2022-10-14T18:34:29.845Z,98908.75
2022-10-14T18:36:58.586Z,98906.97
2022-10-14T18:39:27.414Z,98900.09
2022-10-14T18:41:56.046Z,98904.41
2022-10-14T18:44:26.065Z,98910.38
2022-10-14T18:46:55.028Z,98901.81
2022-10-14T18:49:23.805Z,98897.66
2022-10-14T18:51:54.741Z,98905.22
2022-10-14T18:54:24.997Z,98907.78
2022-10-14T18:56:54.870Z,98907.78
2022-10-14T18:59:27.262Z,98903.44
2022-10-14T19:01:56.070Z,98896.69
2022-10-14T19:04:28.070Z,98886.38
2022-10-14T19:06:56.707Z,98886.38
2022-10-14T19:09:29.612Z,98883.00
2022-10-14T19:11:59.642Z,98879.63
2022-10-14T19:14:31.880Z,98877.06
2022-10-14T19:17:00.542Z,98874.50
2022-10-14T19:19:29.183Z,98871.09
2022-10-14T19:21:59.691Z,98865.94
2022-10-14T19:24:28.881Z,98868.53
2022-10-14T19:26:57.563Z,98865.16
2022-10-14T19:29:26.198Z,98865.16
2022-10-14T19:31:56.239Z,98860.16
2022-10-14T19:34:27.227Z,98860.00
2022-10-14T19:36:56.115Z,98852.44
2022-10-14T19:39:24.734Z,98853.22
2022-10-14T19:41:53.395Z,98849.84
2022-10-14T19:44:22.086Z,98842.94
2022-10-14T19:46:50.769Z,98841.31
2022-10-14T19:49:21.080Z,98835.38
2022-10-14T19:51:49.690Z,98835.38
2022-10-14T19:54:18.705Z,98831.84
2022-10-14T19:56:47.396Z,98830.22
2022-10-14T19:59:16.376Z,98825.88
2022-10-14T20:01:45.059Z,98818.16
2022-10-14T20:04:33.628Z,98814.00
2022-10-14T20:07:21.399Z,98819.94
2022-10-14T20:10:10.242Z,98810.72
2022-10-14T20:12:57.338Z,98798.81
2022-10-14T20:15:44.641Z,98802.34
2022-10-14T20:18:32.362Z,98792.06
2022-10-14T20:21:20.979Z,98795.59
2022-10-14T20:24:08.507Z,98793.97
2022-10-14T20:26:57.281Z,98793.16
2022-10-14T20:29:44.738Z,98798.31
2022-10-14T20:32:31.866Z,98789.75
2022-10-14T20:35:18.998Z,98790.72
2022-10-14T20:38:07.799Z,98792.47
2022-10-14T20:40:55.048Z,98791.66
2022-10-14T20:43:43.537Z,98783.97
2022-10-14T20:46:30.481Z,98783.97
2022-10-14T20:49:17.652Z,98778.97
2022-10-14T20:52:04.880Z,98777.19
2022-10-14T20:54:53.208Z,98779.63
2022-10-14T20:57:40.666Z,98778.97
2022-10-14T21:00:27.865Z,98780.69
2022-10-14T21:03:15.161Z,98778.97
2022-10-14T21:06:08.174Z,98767.84
2022-10-14T21:08:55.519Z,98768.81
2022-10-14T21:11:45.115Z,98764.47
2022-10-14T21:14:32.301Z,98752.56
2022-10-14T21:17:19.986Z,98748.25
2022-10-14T21:20:09.088Z,98742.28
2022-10-14T21:22:56.333Z,98741.47
2022-10-14T21:25:44.888Z,98740.53
2022-10-14T21:28:33.411Z,98732.81
2022-10-14T21:31:21.151Z,98733.75
2022-10-14T21:34:08.893Z,98737.94
2022-10-14T21:36:56.417Z,98726.69
2022-10-14T21:39:43.539Z,98721.84
2022-10-14T21:42:30.546Z,98717.38
2022-10-14T21:45:19.081Z,98709.66
2022-10-14T21:48:07.188Z,98715.75
2022-10-14T21:51:03.829Z,98703.69
2022-10-14T21:53:51.467Z,98717.38
2022-10-14T21:56:38.878Z,98712.25
2022-10-14T21:59:26.403Z,98708.03
2022-10-14T22:02:14.893Z,98701.94
2022-10-14T22:05:02.462Z,98696.81
2022-10-14T22:07:49.988Z,98691.66
2022-10-14T22:10:45.437Z,98687.47
2022-10-14T22:13:33.327Z,98677.31
2022-10-14T22:16:21.022Z,98672.19
2022-10-14T22:19:11.453Z,98673.91
2022-10-14T22:21:59.231Z,98672.28
2022-10-14T22:24:46.380Z,98661.06
2022-10-14T22:27:33.502Z,98662.84
2022-10-14T22:30:21.153Z,98666.22
2022-10-14T22:33:08.480Z,98655.91
2022-10-14T22:36:08.097Z,98655.91
2022-10-14T22:38:57.727Z,98655.91
2022-10-14T22:41:45.134Z,98650.78
2022-10-14T22:44:32.346Z,98648.88
2022-10-14T22:47:19.471Z,98654.84
2022-10-14T22:50:08.051Z,98650.50
2022-10-14T22:52:56.976Z,98652.25
2022-10-14T22:55:43.947Z,98649.84
2022-10-14T22:58:31.099Z,98642.81
2022-10-14T23:01:18.730Z,98639.25
2022-10-14T23:04:06.441Z,98636.69
2022-10-14T23:06:53.647Z,98636.69
2022-10-14T23:09:42.571Z,98634.78
2022-10-14T23:12:29.693Z,98631.38
2022-10-14T23:15:17.006Z,98628.81
2022-10-14T23:18:05.020Z,98625.31
2022-10-14T23:20:52.852Z,98630.28
2022-10-14T23:23:41.216Z,98625.16
2022-10-14T23:26:33.197Z,98626.13
2022-10-14T23:29:20.725Z,98621.00
2022-10-14T23:32:08.114Z,98621.63
2022-10-14T23:34:55.537Z,98624.19
2022-10-14T23:37:42.989Z,98624.19
2022-10-14T23:40:30.499Z,98620.69
2022-10-14T23:43:19.341Z,98612.97
2022-10-14T23:46:07.666Z,98619.84
2022-10-14T23:49:06.785Z,98605.25
2022-10-14T23:51:55.322Z,98605.25
2022-10-14T23:54:42.279Z,98617.16
2022-10-14T23:57:29.525Z,98610.41
